createdAt,value
2023-01-02T00:00:21.521Z,53.28
2023-01-02T00:01:21.035Z,47.16
2023-01-02T00:02:21.122Z,55.41
2023-01-02T00:03:21.106Z,50.14
2023-01-02T00:04:21.010Z,45.60
2023-01-02T00:05:21.012Z,45.81
2023-01-02T00:06:21.007Z,45.22
2023-01-02T00:07:21.009Z,49.26
2023-01-02T00:08:21.032Z,49.31
2023-01-02T00:09:20.972Z,49.19
2023-01-02T00:10:20.996Z,50.43
2023-01-02T00:11:20.961Z,48.72
2023-01-02T00:12:20.956Z,50.80
2023-01-02T00:13:20.901Z,52.76
2023-01-02T00:14:20.930Z,50.32
2023-01-02T00:15:20.907Z,54.30
2023-01-02T00:16:20.948Z,46.58
2023-01-02T00:17:20.896Z,44.60
2023-01-02T00:18:20.868Z,47.32
2023-01-02T00:19:20.887Z,44.49
2023-01-02T00:20:20.848Z,43.54
2023-01-02T00:21:20.832Z,44.02
2023-01-02T00:22:20.821Z,49.81
2023-01-02T00:23:20.806Z,45.23
2023-01-02T00:24:20.852Z,50.56
2023-01-02T00:25:20.808Z,45.91
2023-01-02T00:26:20.787Z,50.78
2023-01-02T00:27:20.768Z,65.72
2023-01-02T00:28:20.771Z,49.85
2023-01-02T00:29:20.771Z,50.64
2023-01-02T00:30:20.790Z,51.58
2023-01-02T00:31:20.771Z,50.85
2023-01-02T00:32:20.730Z,45.48
2023-01-02T00:33:20.739Z,44.15
2023-01-02T00:34:20.744Z,48.04
2023-01-02T00:35:20.726Z,46.52
2023-01-02T00:36:20.691Z,51.35
2023-01-02T00:37:20.682Z,54.96
2023-01-02T00:38:20.850Z,54.70
2023-01-02T00:39:20.893Z,57.65
2023-01-02T00:40:20.664Z,49.28
2023-01-02T00:41:20.669Z,47.52
2023-01-02T00:42:20.694Z,45.00
2023-01-02T00:43:20.641Z,44.64
2023-01-02T00:44:20.604Z,43.15
2023-01-02T00:45:20.598Z,49.63
2023-01-02T00:46:20.644Z,50.65
2023-01-02T00:47:20.588Z,49.18
2023-01-02T00:48:20.587Z,53.76
2023-01-02T00:49:20.568Z,49.64
2023-01-02T00:50:20.556Z,50.17
2023-01-02T00:51:20.550Z,53.72
2023-01-02T00:52:20.536Z,51.36
2023-01-02T00:53:20.519Z,52.49
2023-01-02T00:54:21.534Z,50.38
2023-01-02T00:55:20.499Z,67.36
2023-01-02T00:56:20.488Z,53.57
2023-01-02T00:57:20.518Z,49.61
2023-01-02T00:58:20.492Z,47.07
2023-01-02T00:59:20.479Z,43.07
2023-01-02T01:00:24.029Z,43.79
2023-01-02T01:01:21.549Z,44.00
2023-01-02T01:02:20.501Z,43.31
2023-01-02T01:03:20.436Z,43.23
2023-01-02T01:04:20.398Z,44.47
2023-01-02T01:05:20.404Z,53.11
2023-01-02T01:06:20.392Z,56.92
2023-01-02T01:07:20.387Z,46.10
2023-01-02T01:08:20.367Z,52.04
2023-01-02T01:09:20.385Z,52.86
2023-01-02T01:10:20.367Z,52.14
2023-01-02T01:11:20.358Z,47.96
2023-01-02T01:12:20.365Z,51.69
2023-01-02T01:13:20.352Z,48.32
2023-01-02T01:14:20.332Z,45.19
2023-01-02T01:15:20.320Z,49.02
2023-01-02T01:16:20.361Z,59.01
2023-01-02T01:17:20.293Z,51.45
2023-01-02T01:18:20.289Z,50.61
2023-01-02T01:19:20.246Z,53.74
2023-01-02T01:20:20.238Z,44.12
2023-01-02T01:21:20.327Z,47.86
2023-01-02T01:22:20.235Z,44.85
2023-01-02T01:23:20.266Z,55.71
2023-01-02T01:24:20.210Z,48.67
2023-01-02T01:25:20.259Z,46.10
2023-01-02T01:26:20.227Z,50.09
2023-01-02T01:27:20.198Z,46.55
2023-01-02T01:28:20.210Z,45.43
2023-01-02T01:29:20.163Z,45.52
2023-01-02T01:30:20.194Z,57.00
2023-01-02T01:31:20.165Z,48.86
2023-01-02T01:32:20.155Z,52.47
2023-01-02T01:33:20.161Z,53.88
2023-01-02T01:34:20.155Z,51.83
2023-01-02T01:35:20.128Z,51.89
2023-01-02T01:36:20.121Z,53.03
2023-01-02T01:37:20.095Z,52.93
2023-01-02T01:38:51.957Z,48.57
2023-01-02T01:39:20.059Z,42.93
2023-01-02T01:40:20.063Z,49.64
2023-01-02T01:41:20.035Z,48.68
2023-01-02T01:42:20.045Z,47.88
2023-01-02T01:43:20.033Z,42.69
2023-01-02T01:44:20.004Z,42.16
2023-01-02T01:45:20.008Z,43.92
2023-01-02T01:46:19.992Z,52.38
2023-01-02T01:47:19.985Z,51.45
2023-01-02T01:48:20.000Z,47.00
2023-01-02T01:49:19.963Z,42.61
2023-01-02T01:50:19.982Z,46.79
2023-01-02T01:51:19.954Z,50.49
2023-01-02T01:52:19.937Z,42.69
2023-01-02T01:53:19.937Z,43.26
2023-01-02T01:54:19.908Z,48.84
2023-01-02T01:55:19.906Z,48.13
2023-01-02T01:56:19.894Z,47.91
2023-01-02T01:57:19.882Z,43.45
2023-01-02T01:58:19.875Z,44.05
2023-01-02T01:59:19.879Z,51.30
2023-01-02T02:00:19.853Z,49.30
2023-01-02T02:01:19.950Z,42.64
2023-01-02T02:02:19.876Z,46.35
2023-01-02T02:03:19.844Z,49.02
2023-01-02T02:04:19.841Z,44.06
2023-01-02T02:05:19.795Z,48.15
2023-01-02T02:06:19.787Z,43.75
2023-01-02T02:07:19.780Z,48.76
2023-01-02T02:08:19.768Z,43.12
2023-01-02T02:09:19.760Z,45.95
2023-01-02T02:10:19.767Z,42.64
2023-01-02T02:11:19.748Z,49.68
2023-01-02T02:12:24.307Z,50.26
2023-01-02T02:13:20.736Z,49.27
2023-01-02T02:14:19.705Z,47.01
2023-01-02T02:15:19.738Z,45.16
2023-01-02T02:16:19.705Z,49.72
2023-01-02T02:17:19.693Z,44.70
2023-01-02T02:18:19.670Z,43.49
2023-01-02T02:19:19.675Z,47.23
2023-01-02T02:20:19.650Z,44.07
2023-01-02T02:21:19.676Z,41.91
2023-01-02T02:22:19.635Z,44.53
2023-01-02T02:23:19.633Z,52.45
2023-01-02T02:24:19.614Z,47.94
2023-01-02T02:25:19.608Z,46.76
2023-01-02T02:26:19.593Z,50.54
2023-01-02T02:27:19.579Z,49.69
2023-01-02T02:28:19.599Z,43.55
2023-01-02T02:29:19.575Z,42.36
2023-01-02T02:30:19.552Z,46.60
2023-01-02T02:31:19.570Z,41.97
2023-01-02T02:32:19.553Z,41.84
2023-01-02T02:33:19.520Z,41.07
2023-01-02T02:34:19.525Z,41.03
2023-01-02T02:35:19.511Z,49.18
2023-01-02T02:36:19.513Z,51.37
2023-01-02T02:37:19.511Z,41.39
2023-01-02T02:38:19.558Z,40.71
2023-01-02T02:39:19.468Z,42.75
2023-01-02T02:40:19.474Z,42.29
2023-01-02T02:41:19.449Z,40.78
2023-01-02T02:42:19.432Z,49.62
2023-01-02T02:43:19.449Z,44.96
2023-01-02T02:44:19.427Z,47.66
2023-01-02T02:45:19.415Z,43.28
2023-01-02T02:46:19.434Z,42.25
2023-01-02T02:47:19.387Z,62.30
2023-01-02T02:48:19.402Z,53.54
2023-01-02T02:49:19.372Z,52.22
2023-01-02T02:50:19.367Z,42.46
2023-01-02T02:51:19.343Z,50.42
2023-01-02T02:52:19.339Z,45.24
2023-01-02T02:53:19.346Z,46.33
2023-01-02T02:54:19.403Z,50.10
2023-01-02T02:55:19.333Z,48.86
2023-01-02T02:56:19.321Z,53.56
2023-01-02T02:57:19.282Z,44.16
2023-01-02T02:58:19.285Z,50.64
2023-01-02T02:59:19.272Z,48.43
2023-01-02T03:00:19.266Z,51.14
2023-01-02T03:01:19.344Z,55.18
2023-01-02T03:02:19.441Z,48.13
2023-01-02T03:03:19.369Z,45.26
2023-01-02T03:04:19.233Z,42.22
2023-01-02T03:05:19.225Z,45.97
2023-01-02T03:06:19.239Z,41.99
2023-01-02T03:07:19.197Z,52.53
2023-01-02T03:08:19.205Z,57.23
2023-01-02T03:09:19.172Z,45.27
2023-01-02T03:10:19.243Z,49.06
2023-01-02T03:11:19.152Z,51.45
2023-01-02T03:12:19.140Z,55.83
2023-01-02T03:13:19.145Z,52.87
2023-01-02T03:14:19.126Z,46.57
2023-01-02T03:15:19.105Z,44.64
2023-01-02T03:16:19.179Z,51.40
2023-01-02T03:17:19.125Z,44.01
2023-01-02T03:18:19.103Z,44.31
2023-01-02T03:19:19.065Z,47.51
2023-01-02T03:20:19.057Z,60.34
2023-01-02T03:21:19.049Z,52.07
2023-01-02T03:22:19.053Z,47.92
2023-01-02T03:23:19.046Z,45.35
2023-01-02T03:24:19.042Z,49.85
2023-01-02T03:25:19.000Z,48.17
2023-01-02T03:26:19.039Z,48.51
2023-01-02T03:27:19.029Z,45.82
2023-01-02T03:28:18.981Z,60.28
2023-01-02T03:29:18.994Z,57.81
2023-01-02T03:30:18.957Z,48.30
2023-01-02T03:31:19.007Z,46.99
2023-01-02T03:32:18.943Z,47.87
2023-01-02T03:33:18.940Z,48.67
2023-01-02T03:34:18.952Z,48.25
2023-01-02T03:35:18.911Z,54.17
2023-01-02T03:36:18.911Z,45.55
2023-01-02T03:37:18.908Z,54.28
2023-01-02T03:38:18.875Z,47.85
2023-01-02T03:39:18.911Z,50.68
2023-01-02T03:40:18.867Z,50.54
2023-01-02T03:41:18.865Z,51.82
2023-01-02T03:42:18.847Z,50.12
2023-01-02T03:43:18.860Z,61.39
2023-01-02T03:44:18.824Z,54.39
2023-01-02T03:45:18.837Z,53.57
2023-01-02T03:46:18.827Z,50.30
2023-01-02T03:47:18.800Z,53.31
2023-01-02T03:48:18.784Z,50.30
2023-01-02T03:49:18.771Z,49.09
2023-01-02T03:50:18.780Z,49.86
2023-01-02T03:51:18.765Z,47.39
2023-01-02T03:52:22.597Z,50.17
2023-01-02T03:53:19.738Z,48.78
2023-01-02T03:54:18.727Z,50.91
2023-01-02T03:55:18.714Z,47.93
2023-01-02T03:56:18.706Z,54.75
2023-01-02T03:57:18.719Z,56.77
2023-01-02T03:58:18.685Z,51.01
2023-01-02T03:59:18.671Z,67.17
2023-01-02T04:00:18.665Z,52.95
2023-01-02T04:01:18.809Z,56.45
2023-01-02T04:02:18.818Z,51.99
2023-01-02T04:03:18.712Z,51.08
2023-01-02T04:04:18.658Z,52.81
2023-01-02T04:05:18.627Z,53.07
2023-01-02T04:06:18.637Z,49.78
2023-01-02T04:07:18.613Z,54.19
2023-01-02T04:08:18.591Z,51.93
2023-01-02T04:09:18.589Z,54.39
2023-01-02T04:10:18.578Z,63.83
2023-01-02T04:11:18.583Z,54.26
2023-01-02T04:12:18.555Z,49.39
2023-01-02T04:13:18.540Z,52.61
2023-01-02T04:14:18.530Z,53.62
2023-01-02T04:15:18.519Z,51.79
2023-01-02T04:16:18.530Z,51.84
2023-01-02T04:17:18.528Z,51.91
2023-01-02T04:18:18.507Z,53.78
2023-01-02T04:19:18.472Z,53.09
2023-01-02T04:20:18.477Z,52.16
2023-01-02T04:21:18.501Z,50.82
2023-01-02T04:22:18.469Z,55.05
2023-01-02T04:23:18.444Z,54.37
2023-01-02T04:24:18.447Z,55.79
2023-01-02T04:25:18.500Z,54.11
2023-01-02T04:26:18.410Z,54.28
2023-01-02T04:27:18.398Z,54.73
2023-01-02T04:28:18.393Z,54.68
2023-01-02T04:29:18.382Z,55.95
2023-01-02T04:30:18.409Z,56.06
2023-01-02T04:31:18.405Z,59.78
2023-01-02T04:32:18.358Z,55.94
2023-01-02T04:33:18.357Z,53.79
2023-01-02T04:34:18.345Z,57.46
2023-01-02T04:35:18.346Z,54.39
2023-01-02T04:36:18.324Z,55.47
2023-01-02T04:37:18.323Z,56.11
2023-01-02T04:38:18.316Z,59.51
2023-01-02T04:39:18.284Z,60.96
2023-01-02T04:40:18.274Z,56.92
2023-01-02T04:41:18.277Z,52.12
2023-01-02T04:42:18.272Z,55.76
2023-01-02T04:43:18.259Z,55.63
2023-01-02T04:44:18.240Z,53.46
2023-01-02T04:45:18.231Z,54.22
2023-01-02T04:46:18.254Z,55.08
2023-01-02T04:47:21.786Z,51.48
2023-01-02T04:48:19.202Z,51.96
2023-01-02T04:49:18.186Z,55.22
2023-01-02T04:50:18.183Z,55.13
2023-01-02T04:51:18.174Z,48.09
2023-01-02T04:52:18.169Z,49.96
2023-01-02T04:53:18.166Z,51.91
2023-01-02T04:54:18.133Z,54.93
2023-01-02T04:55:18.131Z,51.38
2023-01-02T04:56:18.126Z,54.20
2023-01-02T04:57:18.117Z,53.24
2023-01-02T04:58:18.121Z,53.26
2023-01-02T04:59:18.088Z,52.46
2023-01-02T05:00:18.092Z,57.70
2023-01-02T05:01:18.216Z,56.11
2023-01-02T05:02:18.215Z,53.04
2023-01-02T05:03:18.117Z,52.89
2023-01-02T05:04:18.058Z,56.89
2023-01-02T05:05:18.034Z,52.69
2023-01-02T05:06:18.024Z,52.24
2023-01-02T05:07:18.040Z,56.08
2023-01-02T05:08:18.004Z,53.59
2023-01-02T05:09:17.998Z,54.38
2023-01-02T05:10:17.975Z,58.54
2023-01-02T05:11:17.972Z,54.15
2023-01-02T05:12:17.986Z,53.46
2023-01-02T05:13:17.955Z,50.83
2023-01-02T05:14:17.941Z,52.76
2023-01-02T05:15:17.974Z,58.33
2023-01-02T05:16:18.018Z,53.60
2023-01-02T05:17:17.916Z,56.25
2023-01-02T05:18:17.901Z,53.60
2023-01-02T05:19:17.897Z,55.31
2023-01-02T05:20:17.905Z,51.49
2023-01-02T05:21:17.875Z,56.75
2023-01-02T05:22:17.869Z,55.33
2023-01-02T05:23:17.879Z,55.78
2023-01-02T05:24:17.870Z,55.27
2023-01-02T05:25:17.828Z,53.78
2023-01-02T05:26:17.824Z,56.72
2023-01-02T05:27:17.828Z,56.26
2023-01-02T05:28:17.807Z,55.66
2023-01-02T05:29:17.821Z,56.75
2023-01-02T05:30:17.787Z,55.90
2023-01-02T05:31:17.810Z,55.97
2023-01-02T05:32:17.771Z,56.64
2023-01-02T05:33:17.771Z,57.75
2023-01-02T05:34:17.827Z,54.83
2023-01-02T05:35:17.759Z,55.05
2023-01-02T05:36:17.732Z,58.10
2023-01-02T05:37:17.731Z,58.47
2023-01-02T05:38:17.713Z,56.09
2023-01-02T05:39:17.703Z,58.01
2023-01-02T05:40:17.703Z,57.63
2023-01-02T05:41:17.674Z,57.22
2023-01-02T05:42:17.669Z,60.14
2023-01-02T05:43:17.673Z,61.39
2023-01-02T05:44:17.651Z,60.20
2023-01-02T05:45:17.642Z,62.64
2023-01-02T05:46:17.676Z,56.11
2023-01-02T05:47:17.621Z,60.02
2023-01-02T05:48:17.623Z,60.50
2023-01-02T05:49:17.605Z,58.35
2023-01-02T05:50:17.602Z,56.78
2023-01-02T05:51:17.633Z,57.53
2023-01-02T05:52:17.569Z,58.40
2023-01-02T05:53:17.560Z,58.99
2023-01-02T05:54:17.548Z,57.86
2023-01-02T05:55:17.545Z,59.24
2023-01-02T05:56:17.539Z,56.27
2023-01-02T05:57:18.521Z,56.09
2023-01-02T05:58:17.507Z,56.70
2023-01-02T05:59:17.495Z,58.31
2023-01-02T06:00:17.508Z,60.65
2023-01-02T06:01:17.522Z,59.39
2023-01-02T06:02:17.580Z,59.50
2023-01-02T06:03:17.601Z,59.78
2023-01-02T06:04:19.827Z,59.79
2023-01-02T06:05:18.452Z,59.45
2023-01-02T06:06:17.456Z,60.10
2023-01-02T06:07:17.424Z,60.75
2023-01-02T06:08:17.411Z,61.00
2023-01-02T06:09:17.408Z,58.46
2023-01-02T06:10:17.384Z,56.77
2023-01-02T06:11:17.419Z,59.26
2023-01-02T06:12:17.392Z,58.60
2023-01-02T06:13:17.371Z,62.41
2023-01-02T06:14:17.366Z,59.55
2023-01-02T06:15:17.343Z,60.34
2023-01-02T06:16:17.359Z,57.53
2023-01-02T06:17:17.331Z,57.27
2023-01-02T06:18:17.314Z,58.31
2023-01-02T06:19:17.306Z,58.39
2023-01-02T06:20:17.316Z,59.24
2023-01-02T06:21:17.297Z,59.58
2023-01-02T06:22:17.273Z,59.84
2023-01-02T06:23:17.271Z,59.08
2023-01-02T06:24:17.256Z,57.80
2023-01-02T06:25:17.255Z,59.39
2023-01-02T06:26:17.290Z,58.91
2023-01-02T06:27:17.238Z,58.45
2023-01-02T06:28:17.222Z,57.49
2023-01-02T06:29:17.203Z,60.05
2023-01-02T06:30:17.202Z,59.21
2023-01-02T06:31:17.329Z,59.53
2023-01-02T06:32:17.219Z,60.68
2023-01-02T06:33:17.185Z,62.92
2023-01-02T06:34:17.161Z,57.98
2023-01-02T06:35:17.147Z,57.26
2023-01-02T06:36:17.140Z,58.83
2023-01-02T06:37:17.155Z,55.95
2023-01-02T06:38:17.136Z,56.64
2023-01-02T06:39:17.148Z,56.77
2023-01-02T06:40:17.131Z,57.12
2023-01-02T06:41:17.103Z,58.44
2023-01-02T06:42:17.087Z,57.83
2023-01-02T06:43:17.096Z,57.54
2023-01-02T06:44:17.125Z,58.10
2023-01-02T06:45:17.041Z,59.51
2023-01-02T06:46:17.110Z,58.53
2023-01-02T06:47:17.215Z,58.55
2023-01-02T06:48:17.008Z,60.37
2023-01-02T06:49:17.027Z,60.82
2023-01-02T06:50:17.001Z,60.38
2023-01-02T06:51:16.991Z,57.74
2023-01-02T06:52:16.973Z,59.01
2023-01-02T06:53:16.971Z,57.12
2023-01-02T06:54:17.066Z,58.31
2023-01-02T06:55:16.947Z,57.96
2023-01-02T06:56:16.935Z,58.63
2023-01-02T06:57:16.926Z,60.19
2023-01-02T06:58:19.544Z,61.85
2023-01-02T06:59:17.921Z,59.77
2023-01-02T07:00:16.915Z,57.44
2023-01-02T07:01:17.085Z,57.60
2023-01-02T07:02:17.020Z,65.15
2023-01-02T07:03:16.868Z,57.43
2023-01-02T07:04:16.862Z,55.60
2023-01-02T07:05:22.688Z,56.43
2023-01-02T07:06:17.835Z,57.26
2023-01-02T07:07:16.824Z,57.78
2023-01-02T07:08:16.818Z,58.00
2023-01-02T07:09:16.846Z,54.67
2023-01-02T07:10:16.828Z,58.66
2023-01-02T07:11:16.795Z,55.47
2023-01-02T07:12:16.784Z,57.73
2023-01-02T07:13:16.793Z,56.66
2023-01-02T07:14:16.783Z,56.31
2023-01-02T07:15:16.760Z,56.02
2023-01-02T07:16:17.835Z,56.60
2023-01-02T07:17:16.806Z,54.91
2023-01-02T07:18:16.733Z,56.31
2023-01-02T07:19:16.717Z,59.49
2023-01-02T07:20:16.719Z,55.76
2023-01-02T07:21:16.702Z,58.99
2023-01-02T07:22:16.697Z,58.69
2023-01-02T07:23:16.692Z,56.56
2023-01-02T07:24:16.660Z,56.51
2023-01-02T07:25:16.679Z,59.03
2023-01-02T07:26:16.760Z,58.32
2023-01-02T07:27:16.664Z,64.40
2023-01-02T07:28:16.633Z,56.38
2023-01-02T07:29:16.616Z,54.99
2023-01-02T07:30:16.612Z,54.21
2023-01-02T07:31:16.642Z,57.34
2023-01-02T07:32:18.076Z,55.25
2023-01-02T07:33:16.580Z,56.66
2023-01-02T07:34:16.585Z,57.19
2023-01-02T07:35:16.557Z,58.23
2023-01-02T07:36:16.554Z,57.15
2023-01-02T07:37:16.529Z,58.85
2023-01-02T07:38:24.979Z,53.38
2023-01-02T07:39:16.514Z,61.62
2023-01-02T07:40:16.532Z,58.44
2023-01-02T07:41:16.507Z,56.79
2023-01-02T07:42:16.503Z,58.80
2023-01-02T07:43:16.485Z,57.05
2023-01-02T07:44:16.484Z,58.70
2023-01-02T07:45:16.510Z,57.34
2023-01-02T07:46:16.523Z,57.33
2023-01-02T07:47:16.492Z,57.02
2023-01-02T07:48:16.492Z,56.61
2023-01-02T07:49:16.437Z,58.52
2023-01-02T07:50:16.449Z,58.40
2023-01-02T07:51:19.785Z,57.09
2023-01-02T07:52:17.393Z,60.14
2023-01-02T07:53:16.393Z,59.30
2023-01-02T07:54:16.380Z,58.59
2023-01-02T07:55:16.380Z,57.91
2023-01-02T07:56:16.377Z,55.52
2023-01-02T07:57:16.353Z,56.83
2023-01-02T07:58:16.338Z,55.78
2023-01-02T07:59:16.339Z,55.95
2023-01-02T08:00:16.323Z,56.47
2023-01-02T08:01:16.436Z,56.02
2023-01-02T08:02:16.405Z,56.72
2023-01-02T08:03:16.296Z,57.17
2023-01-02T08:04:16.387Z,56.76
2023-01-02T08:05:16.268Z,56.21
2023-01-02T08:06:16.292Z,56.34
2023-01-02T08:07:16.265Z,53.41
2023-01-02T08:08:16.241Z,56.20
2023-01-02T08:09:16.265Z,55.04
2023-01-02T08:10:16.231Z,55.63
2023-01-02T08:11:16.224Z,57.72
2023-01-02T08:12:16.201Z,54.27
2023-01-02T08:13:16.194Z,53.88
2023-01-02T08:14:23.069Z,56.65
2023-01-02T08:15:18.171Z,52.63
2023-01-02T08:16:16.183Z,56.42
2023-01-02T08:17:16.158Z,58.21
2023-01-02T08:18:16.143Z,55.74
2023-01-02T08:19:16.167Z,55.61
2023-01-02T08:20:16.126Z,54.64
2023-01-02T08:21:16.110Z,54.06
2023-01-02T08:22:16.108Z,53.41
2023-01-02T08:23:16.117Z,54.51
2023-01-02T08:24:16.104Z,54.09
2023-01-02T08:25:16.068Z,57.66
2023-01-02T08:26:16.063Z,57.27
2023-01-02T08:27:16.094Z,53.63
2023-01-02T08:28:16.094Z,55.39
2023-01-02T08:29:16.037Z,53.97
2023-01-02T08:30:16.031Z,55.03
2023-01-02T08:31:16.061Z,52.29
2023-01-02T08:32:16.007Z,54.84
2023-01-02T08:33:16.011Z,58.31
2023-01-02T08:34:15.984Z,57.02
2023-01-02T08:35:15.980Z,58.07
2023-01-02T08:36:15.970Z,55.50
2023-01-02T08:37:15.955Z,57.11
2023-01-02T08:38:15.974Z,54.80
2023-01-02T08:39:15.935Z,53.60
2023-01-02T08:40:15.952Z,56.74
2023-01-02T08:41:15.929Z,55.62
2023-01-02T08:42:15.914Z,55.70
2023-01-02T08:43:16.400Z,55.22
2023-01-02T08:44:16.889Z,53.65
2023-01-02T08:45:15.900Z,55.17
2023-01-02T08:46:15.975Z,56.21
2023-01-02T08:47:15.891Z,56.04
2023-01-02T08:48:20.688Z,55.12
2023-01-02T08:49:16.838Z,57.78
2023-01-02T08:50:15.834Z,55.56
2023-01-02T08:51:15.816Z,53.11
2023-01-02T08:52:15.829Z,54.37
2023-01-02T08:53:15.795Z,54.20
2023-01-02T08:54:15.782Z,56.30
2023-01-02T08:55:15.788Z,56.18
2023-01-02T08:56:15.821Z,57.85
2023-01-02T08:57:15.758Z,54.80
2023-01-02T08:58:15.750Z,56.57
2023-01-02T08:59:15.747Z,56.32
2023-01-02T09:00:15.735Z,53.95
2023-01-02T09:01:15.839Z,54.82
2023-01-02T09:02:15.834Z,57.81
2023-01-02T09:03:15.711Z,58.20
2023-01-02T09:04:15.709Z,55.26
2023-01-02T09:05:15.674Z,53.73
2023-01-02T09:06:21.554Z,54.70
2023-01-02T09:07:17.670Z,53.15
2023-01-02T09:08:15.773Z,56.22
2023-01-02T09:09:15.664Z,55.08
2023-01-02T09:10:15.630Z,55.47
2023-01-02T09:11:15.619Z,58.29
2023-01-02T09:12:15.619Z,53.98
2023-01-02T09:13:15.603Z,55.11
2023-01-02T09:14:15.623Z,55.82
2023-01-02T09:15:15.581Z,54.77
2023-01-02T09:16:15.605Z,57.18
2023-01-02T09:17:15.588Z,56.63
2023-01-02T09:18:16.814Z,55.24
2023-01-02T09:19:15.573Z,52.61
2023-01-02T09:20:15.528Z,54.79
2023-01-02T09:21:15.551Z,57.54
2023-01-02T09:22:15.527Z,55.94
2023-01-02T09:23:15.501Z,56.57
2023-01-02T09:24:15.511Z,55.75
2023-01-02T09:25:18.990Z,54.57
2023-01-02T09:26:15.517Z,54.01
2023-01-02T09:27:15.499Z,54.75
2023-01-02T09:28:15.513Z,55.89
2023-01-02T09:29:15.474Z,54.19
2023-01-02T09:30:15.472Z,55.15
2023-01-02T09:31:15.454Z,53.71
2023-01-02T09:32:15.419Z,54.18
2023-01-02T09:33:15.430Z,54.43
2023-01-02T09:34:15.401Z,58.22
2023-01-02T09:35:15.387Z,56.58
2023-01-02T09:36:16.396Z,57.01
2023-01-02T09:37:15.392Z,57.61
2023-01-02T09:38:15.361Z,55.16
2023-01-02T09:39:15.347Z,54.00
2023-01-02T09:40:15.366Z,57.14
2023-01-02T09:41:15.335Z,55.12
2023-01-02T09:42:15.349Z,56.55
2023-01-02T09:43:15.312Z,53.70
2023-01-02T09:44:15.295Z,57.16
2023-01-02T09:45:15.291Z,55.48
2023-01-02T09:46:15.331Z,54.81
2023-01-02T09:47:15.290Z,51.84
2023-01-02T09:48:15.291Z,55.24
2023-01-02T09:49:15.279Z,56.20
2023-01-02T09:50:15.250Z,56.09
2023-01-02T09:51:15.243Z,56.86
2023-01-02T09:52:15.212Z,53.48
2023-01-02T09:53:15.214Z,54.38
2023-01-02T09:54:15.240Z,55.00
2023-01-02T09:55:15.197Z,54.63
2023-01-02T09:56:21.064Z,58.67
2023-01-02T09:57:17.183Z,57.73
2023-01-02T09:58:15.154Z,57.48
2023-01-02T09:59:15.158Z,55.31
2023-01-02T10:00:15.165Z,56.53
2023-01-02T10:01:15.171Z,53.37
2023-01-02T10:02:15.144Z,55.55
2023-01-02T10:03:15.289Z,55.11
2023-01-02T10:04:15.165Z,55.95
2023-01-02T10:05:15.111Z,55.76
2023-01-02T10:06:15.163Z,55.86
2023-01-02T10:07:15.117Z,53.56
2023-01-02T10:08:15.094Z,54.75
2023-01-02T10:09:15.060Z,55.45
2023-01-02T10:10:15.052Z,56.18
2023-01-02T10:11:15.070Z,56.40
2023-01-02T10:12:15.040Z,56.59
2023-01-02T10:13:15.050Z,55.27
2023-01-02T10:14:19.747Z,55.42
2023-01-02T10:15:17.004Z,59.04
2023-01-02T10:16:16.030Z,53.09
2023-01-02T10:17:14.980Z,55.73
2023-01-02T10:18:14.971Z,54.74
2023-01-02T10:19:14.995Z,53.29
2023-01-02T10:20:20.423Z,55.65
2023-01-02T10:21:16.953Z,56.08
2023-01-02T10:22:14.937Z,56.11
2023-01-02T10:23:14.938Z,55.70
2023-01-02T10:24:14.929Z,54.82
2023-01-02T10:25:14.904Z,56.90
2023-01-02T10:26:14.898Z,57.92
2023-01-02T10:27:14.901Z,56.77
2023-01-02T10:28:14.866Z,56.20
2023-01-02T10:29:14.877Z,53.81
2023-01-02T10:30:14.892Z,56.49
2023-01-02T10:31:14.885Z,54.86
2023-01-02T10:32:14.842Z,56.64
2023-01-02T10:33:14.832Z,53.86
2023-01-02T10:34:14.825Z,56.11
2023-01-02T10:35:14.846Z,55.62
2023-01-02T10:36:14.793Z,55.06
2023-01-02T10:37:14.812Z,54.52
2023-01-02T10:38:14.791Z,56.13
2023-01-02T10:39:14.772Z,56.79
2023-01-02T10:40:14.784Z,55.45
2023-01-02T10:41:14.768Z,56.36
2023-01-02T10:42:14.785Z,57.31
2023-01-02T10:43:14.791Z,57.96
2023-01-02T10:44:14.727Z,56.08
2023-01-02T10:45:14.723Z,56.29
2023-01-02T10:46:14.731Z,53.42
2023-01-02T10:47:14.711Z,56.14
2023-01-02T10:48:14.718Z,57.81
2023-01-02T10:49:14.684Z,56.67
2023-01-02T10:50:14.683Z,59.02
2023-01-02T10:51:14.702Z,57.10
2023-01-02T10:52:14.791Z,54.97
2023-01-02T10:53:14.652Z,56.67
2023-01-02T10:54:14.657Z,54.88
2023-01-02T10:55:14.629Z,54.85
2023-01-02T10:56:14.657Z,57.29
2023-01-02T10:57:14.604Z,56.25
2023-01-02T10:58:14.595Z,56.13
2023-01-02T10:59:14.606Z,55.41
2023-01-02T11:00:14.595Z,53.38
2023-01-02T11:01:14.715Z,55.47
2023-01-02T11:02:14.703Z,54.61
2023-01-02T11:03:14.531Z,63.20
2023-01-02T11:04:14.542Z,57.98
2023-01-02T11:05:14.546Z,54.01
2023-01-02T11:06:26.049Z,57.13
2023-01-02T11:07:16.507Z,58.00
2023-01-02T11:08:14.503Z,57.13
2023-01-02T11:09:14.505Z,59.07
2023-01-02T11:10:14.507Z,55.37
2023-01-02T11:11:14.474Z,56.90
2023-01-02T11:12:14.532Z,56.76
2023-01-02T11:13:14.507Z,57.67
2023-01-02T11:14:14.444Z,58.29
2023-01-02T11:15:14.443Z,57.49
2023-01-02T11:16:14.480Z,57.05
2023-01-02T11:17:14.418Z,58.11
2023-01-02T11:18:14.402Z,56.09
2023-01-02T11:19:14.401Z,55.56
2023-01-02T11:20:14.375Z,56.65
2023-01-02T11:21:14.397Z,57.35
2023-01-02T11:22:14.385Z,58.06
2023-01-02T11:23:14.350Z,58.07
2023-01-02T11:24:14.388Z,58.71
2023-01-02T11:25:14.328Z,56.20
2023-01-02T11:26:14.321Z,55.44
2023-01-02T11:27:14.320Z,56.54
2023-01-02T11:28:14.297Z,57.01
2023-01-02T11:29:14.310Z,57.38
2023-01-02T11:30:14.362Z,58.04
2023-01-02T11:31:14.302Z,57.74
2023-01-02T11:32:14.254Z,58.19
2023-01-02T11:33:14.259Z,56.93
2023-01-02T11:34:14.232Z,55.71
2023-01-02T11:35:14.239Z,56.58
2023-01-02T11:36:14.234Z,57.43
2023-01-02T11:37:14.223Z,56.84
2023-01-02T11:38:14.207Z,56.40
2023-01-02T11:39:14.197Z,56.90
2023-01-02T11:40:14.197Z,56.93
2023-01-02T11:41:14.163Z,56.62
2023-01-02T11:42:14.164Z,57.26
2023-01-02T11:43:14.159Z,56.61
2023-01-02T11:44:20.207Z,60.01
2023-01-02T11:45:15.133Z,56.84
2023-01-02T11:46:14.175Z,56.91
2023-01-02T11:47:14.149Z,57.94
2023-01-02T11:48:14.093Z,55.46
2023-01-02T11:49:14.103Z,58.15
2023-01-02T11:50:14.091Z,57.14
2023-01-02T11:51:17.506Z,60.13
2023-01-02T11:52:15.078Z,60.12
2023-01-02T11:53:14.120Z,58.70
2023-01-02T11:54:14.037Z,56.32
2023-01-02T11:55:14.110Z,56.11
2023-01-02T11:56:14.022Z,58.71
2023-01-02T11:57:18.771Z,57.35
2023-01-02T11:58:14.998Z,57.81
2023-01-02T11:59:13.980Z,66.19
2023-01-02T12:00:13.991Z,57.34
2023-01-02T12:01:13.979Z,56.65
2023-01-02T12:02:14.167Z,56.24
2023-01-02T12:03:18.303Z,65.70
2023-01-02T12:04:15.005Z,57.73
2023-01-02T12:05:13.940Z,56.42
2023-01-02T12:06:13.931Z,56.19
2023-01-02T12:07:13.911Z,56.59
2023-01-02T12:08:13.904Z,57.05
2023-01-02T12:09:13.922Z,56.90
2023-01-02T12:10:13.878Z,57.30
2023-01-02T12:11:13.888Z,56.89
2023-01-02T12:12:13.872Z,56.81
2023-01-02T12:13:13.862Z,56.73
2023-01-02T12:14:13.845Z,57.34
2023-01-02T12:15:13.874Z,58.70
2023-01-02T12:16:13.845Z,59.42
2023-01-02T12:17:13.824Z,56.11
2023-01-02T12:18:13.810Z,54.26
2023-01-02T12:19:13.797Z,57.89
2023-01-02T12:20:13.840Z,55.63
2023-01-02T12:21:13.811Z,56.72
2023-01-02T12:22:13.775Z,56.09
2023-01-02T12:23:13.763Z,55.86
2023-01-02T12:24:13.757Z,54.78
2023-01-02T12:25:13.748Z,58.29
2023-01-02T12:26:13.762Z,57.55
2023-01-02T12:27:13.730Z,56.35
2023-01-02T12:28:13.716Z,55.88
2023-01-02T12:29:13.705Z,56.68
2023-01-02T12:30:14.771Z,58.25
2023-01-02T12:31:13.697Z,58.27
2023-01-02T12:32:13.712Z,58.88
2023-01-02T12:33:13.689Z,56.73
2023-01-02T12:34:13.651Z,56.92
2023-01-02T12:35:13.651Z,55.88
2023-01-02T12:36:13.660Z,58.38
2023-01-02T12:37:13.630Z,58.82
2023-01-02T12:38:16.887Z,58.42
2023-01-02T12:39:14.621Z,62.22
2023-01-02T12:40:13.602Z,61.34
2023-01-02T12:41:13.612Z,57.62
2023-01-02T12:42:13.580Z,56.90
2023-01-02T12:43:13.560Z,55.30
2023-01-02T12:44:13.589Z,58.66
2023-01-02T12:45:13.551Z,70.04
2023-01-02T12:46:13.607Z,65.87
2023-01-02T12:47:13.539Z,57.81
2023-01-02T12:48:13.530Z,58.77
2023-01-02T12:49:13.569Z,55.72
2023-01-02T12:50:13.498Z,57.38
2023-01-02T12:51:13.491Z,57.58
2023-01-02T12:52:13.503Z,57.41